sensor_id;sensor_type;location;lat;lon;timestamp;P1;durP1;ratioP1;P2;durP2;ratioP2
46322;SDS011;32044;52.386;13.278;2022-12-29T00:01:14;6.53;;;1.70;;
46322;SDS011;32044;52.386;13.278;2022-12-29T00:03:39;2.55;;;1.95;;
46322;SDS011;32044;52.386;13.278;2022-12-29T00:06:04;2.72;;;1.80;;
46322;SDS011;32044;52.386;13.278;2022-12-29T00:08:30;5.90;;;2.10;;
46322;SDS011;32044;52.386;13.278;2022-12-29T00:11:07;5.90;;;2.60;;
46322;SDS011;32044;52.386;13.278;2022-12-29T00:13:34;5.82;;;1.98;;
46322;SDS011;32044;52.386;13.278;2022-12-29T00:16:18;4.97;;;2.20;;
46322;SDS011;32044;52.386;13.278;2022-12-29T00:18:43;5.43;;;2.20;;
46322;SDS011;32044;52.386;13.278;2022-12-29T00:21:16;2.00;;;1.65;;
46322;SDS011;32044;52.386;13.278;2022-12-29T00:24:01;1.88;;;1.40;;
46322;SDS011;32044;52.386;13.278;2022-12-29T00:26:47;3.03;;;2.05;;
46322;SDS011;32044;52.386;13.278;2022-12-29T00:29:36;3.77;;;1.80;;
46322;SDS011;32044;52.386;13.278;2022-12-29T00:32:20;3.45;;;1.95;;
46322;SDS011;32044;52.386;13.278;2022-12-29T00:35:04;5.57;;;2.05;;
46322;SDS011;32044;52.386;13.278;2022-12-29T00:37:38;2.95;;;2.10;;
46322;SDS011;32044;52.386;13.278;2022-12-29T00:40:24;3.92;;;1.90;;
46322;SDS011;32044;52.386;13.278;2022-12-29T00:43:08;4.03;;;1.95;;
46322;SDS011;32044;52.386;13.278;2022-12-29T00:45:52;5.32;;;1.70;;
46322;SDS011;32044;52.386;13.278;2022-12-29T00:48:17;2.47;;;2.10;;
46322;SDS011;32044;52.386;13.278;2022-12-29T00:51:02;5.22;;;2.10;;
46322;SDS011;32044;52.386;13.278;2022-12-29T00:53:28;3.70;;;1.88;;
46322;SDS011;32044;52.386;13.278;2022-12-29T00:55:53;2.72;;;1.80;;
46322;SDS011;32044;52.386;13.278;2022-12-29T00:58:18;3.05;;;1.70;;
46322;SDS011;32044;52.386;13.278;2022-12-29T01:00:43;2.85;;;1.92;;
46322;SDS011;32044;52.386;13.278;2022-12-29T01:03:09;4.03;;;2.00;;
46322;SDS011;32044;52.386;13.278;2022-12-29T01:05:36;2.38;;;1.77;;
46322;SDS011;32044;52.386;13.278;2022-12-29T01:08:01;6.90;;;2.15;;
46322;SDS011;32044;52.386;13.278;2022-12-29T01:10:26;2.45;;;1.60;;
46322;SDS011;32044;52.386;13.278;2022-12-29T01:12:52;3.42;;;1.83;;
46322;SDS011;32044;52.386;13.278;2022-12-29T01:15:17;2.72;;;1.80;;
46322;SDS011;32044;52.386;13.278;2022-12-29T01:17:42;3.88;;;1.88;;
46322;SDS011;32044;52.386;13.278;2022-12-29T01:20:08;3.35;;;1.98;;
46322;SDS011;32044;52.386;13.278;2022-12-29T01:22:33;3.60;;;1.60;;
46322;SDS011;32044;52.386;13.278;2022-12-29T01:24:59;3.58;;;1.70;;
46322;SDS011;32044;52.386;13.278;2022-12-29T01:27:24;2.72;;;1.90;;
46322;SDS011;32044;52.386;13.278;2022-12-29T01:29:49;2.95;;;1.75;;
46322;SDS011;32044;52.386;13.278;2022-12-29T01:32:14;3.05;;;1.83;;
46322;SDS011;32044;52.386;13.278;2022-12-29T01:34:40;2.72;;;1.67;;
46322;SDS011;32044;52.386;13.278;2022-12-29T01:37:05;2.33;;;1.70;;
46322;SDS011;32044;52.386;13.278;2022-12-29T01:39:30;3.50;;;2.05;;
46322;SDS011;32044;52.386;13.278;2022-12-29T01:41:55;3.08;;;1.55;;
46322;SDS011;32044;52.386;13.278;2022-12-29T01:47:26;5.40;;;1.77;;
46322;SDS011;32044;52.386;13.278;2022-12-29T01:49:53;3.78;;;2.00;;
46322;SDS011;32044;52.386;13.278;2022-12-29T01:52:19;4.85;;;1.60;;
46322;SDS011;32044;52.386;13.278;2022-12-29T01:54:46;5.63;;;1.98;;
46322;SDS011;32044;52.386;13.278;2022-12-29T01:57:17;2.38;;;1.65;;
46322;SDS011;32044;52.386;13.278;2022-12-29T01:59:46;2.88;;;1.73;;
46322;SDS011;32044;52.386;13.278;2022-12-29T02:02:16;4.38;;;2.22;;
46322;SDS011;32044;52.386;13.278;2022-12-29T02:04:41;2.67;;;1.77;;
46322;SDS011;32044;52.386;13.278;2022-12-29T02:07:10;3.03;;;1.90;;
46322;SDS011;32044;52.386;13.278;2022-12-29T02:09:40;2.03;;;1.25;;
46322;SDS011;32044;52.386;13.278;2022-12-29T02:12:06;2.13;;;1.60;;
46322;SDS011;32044;52.386;13.278;2022-12-29T02:14:40;2.10;;;1.63;;
46322;SDS011;32044;52.386;13.278;2022-12-29T02:25:59;3.20;;;1.58;;
46322;SDS011;32044;52.386;13.278;2022-12-29T02:31:51;4.43;;;1.75;;
46322;SDS011;32044;52.386;13.278;2022-12-29T02:34:26;4.82;;;1.50;;
46322;SDS011;32044;52.386;13.278;2022-12-29T02:37:24;3.10;;;1.70;;
46322;SDS011;32044;52.386;13.278;2022-12-29T02:45:21;5.90;;;2.05;;
46322;SDS011;32044;52.386;13.278;2022-12-29T02:47:56;2.67;;;1.70;;
46322;SDS011;32044;52.386;13.278;2022-12-29T02:50:48;2.90;;;1.50;;
46322;SDS011;32044;52.386;13.278;2022-12-29T02:53:17;3.38;;;1.85;;
46322;SDS011;32044;52.386;13.278;2022-12-29T02:56:04;2.25;;;1.70;;
46322;SDS011;32044;52.386;13.278;2022-12-29T02:58:29;2.05;;;1.40;;
46322;SDS011;32044;52.386;13.278;2022-12-29T03:00:58;4.95;;;1.40;;
46322;SDS011;32044;52.386;13.278;2022-12-29T03:03:36;2.90;;;1.70;;
46322;SDS011;32044;52.386;13.278;2022-12-29T03:09:21;2.60;;;1.50;;
46322;SDS011;32044;52.386;13.278;2022-12-29T03:14:59;3.25;;;1.77;;
46322;SDS011;32044;52.386;13.278;2022-12-29T03:17:49;3.55;;;1.77;;
46322;SDS011;32044;52.386;13.278;2022-12-29T03:20:18;2.05;;;1.60;;
46322;SDS011;32044;52.386;13.278;2022-12-29T03:22:46;2.20;;;1.40;;
46322;SDS011;32044;52.386;13.278;2022-12-29T03:25:17;4.05;;;2.00;;
46322;SDS011;32044;52.386;13.278;2022-12-29T03:27:47;2.97;;;1.70;;
46322;SDS011;32044;52.386;13.278;2022-12-29T03:30:14;4.85;;;1.83;;
46322;SDS011;32044;52.386;13.278;2022-12-29T03:32:45;4.40;;;1.58;;
46322;SDS011;32044;52.386;13.278;2022-12-29T03:35:13;4.03;;;1.60;;
46322;SDS011;32044;52.386;13.278;2022-12-29T03:37:41;1.80;;;1.33;;
46322;SDS011;32044;52.386;13.278;2022-12-29T03:40:09;5.68;;;1.73;;
46322;SDS011;32044;52.386;13.278;2022-12-29T03:42:35;2.22;;;1.60;;
46322;SDS011;32044;52.386;13.278;2022-12-29T03:45:01;2.33;;;1.50;;
46322;SDS011;32044;52.386;13.278;2022-12-29T03:47:29;2.20;;;1.60;;
46322;SDS011;32044;52.386;13.278;2022-12-29T03:49:54;3.03;;;1.60;;
46322;SDS011;32044;52.386;13.278;2022-12-29T03:52:20;2.65;;;1.30;;
46322;SDS011;32044;52.386;13.278;2022-12-29T03:54:45;2.28;;;1.60;;
46322;SDS011;32044;52.386;13.278;2022-12-29T03:57:10;3.40;;;1.77;;
46322;SDS011;32044;52.386;13.278;2022-12-29T03:59:36;4.30;;;1.60;;
46322;SDS011;32044;52.386;13.278;2022-12-29T04:02:01;2.00;;;1.70;;
46322;SDS011;32044;52.386;13.278;2022-12-29T04:04:27;3.03;;;1.48;;
46322;SDS011;32044;52.386;13.278;2022-12-29T04:06:52;4.00;;;1.60;;
46322;SDS011;32044;52.386;13.278;2022-12-29T04:09:17;2.38;;;1.45;;
46322;SDS011;32044;52.386;13.278;2022-12-29T04:11:42;2.53;;;1.60;;
46322;SDS011;32044;52.386;13.278;2022-12-29T04:14:08;3.60;;;1.50;;
46322;SDS011;32044;52.386;13.278;2022-12-29T04:16:33;2.75;;;1.50;;
46322;SDS011;32044;52.386;13.278;2022-12-29T04:19:00;1.92;;;1.27;;
46322;SDS011;32044;52.386;13.278;2022-12-29T04:21:26;3.05;;;1.83;;
46322;SDS011;32044;52.386;13.278;2022-12-29T04:23:51;2.85;;;1.75;;
46322;SDS011;32044;52.386;13.278;2022-12-29T04:26:16;2.25;;;1.60;;
46322;SDS011;32044;52.386;13.278;2022-12-29T04:28:42;3.42;;;1.67;;
46322;SDS011;32044;52.386;13.278;2022-12-29T04:31:07;2.78;;;1.50;;
46322;SDS011;32044;52.386;13.278;2022-12-29T04:33:32;2.97;;;1.75;;
46322;SDS011;32044;52.386;13.278;2022-12-29T04:35:57;2.10;;;1.50;;
46322;SDS011;32044;52.386;13.278;2022-12-29T04:38:23;4.00;;;1.73;;
46322;SDS011;32044;52.386;13.278;2022-12-29T04:40:49;3.35;;;1.58;;
46322;SDS011;32044;52.386;13.278;2022-12-29T04:43:15;1.98;;;1.70;;
46322;SDS011;32044;52.386;13.278;2022-12-29T04:45:47;4.50;;;1.38;;
46322;SDS011;32044;52.386;13.278;2022-12-29T04:48:13;5.88;;;1.70;;
46322;SDS011;32044;52.386;13.278;2022-12-29T04:50:39;4.43;;;1.70;;
46322;SDS011;32044;52.386;13.278;2022-12-29T04:53:05;3.78;;;1.90;;
46322;SDS011;32044;52.386;13.278;2022-12-29T04:55:30;4.30;;;1.58;;
46322;SDS011;32044;52.386;13.278;2022-12-29T04:57:55;2.13;;;1.50;;
46322;SDS011;32044;52.386;13.278;2022-12-29T05:00:20;2.53;;;1.63;;
46322;SDS011;32044;52.386;13.278;2022-12-29T05:02:46;4.93;;;1.65;;
46322;SDS011;32044;52.386;13.278;2022-12-29T05:05:11;1.90;;;1.40;;
46322;SDS011;32044;52.386;13.278;2022-12-29T05:07:37;4.30;;;2.17;;
46322;SDS011;32044;52.386;13.278;2022-12-29T05:10:02;3.15;;;1.60;;
46322;SDS011;32044;52.386;13.278;2022-12-29T05:12:35;3.58;;;1.85;;
46322;SDS011;32044;52.386;13.278;2022-12-29T05:15:01;3.10;;;1.60;;
46322;SDS011;32044;52.386;13.278;2022-12-29T05:17:28;6.07;;;1.75;;
46322;SDS011;32044;52.386;13.278;2022-12-29T05:19:53;4.53;;;1.63;;
46322;SDS011;32044;52.386;13.278;2022-12-29T05:22:18;3.42;;;1.63;;
46322;SDS011;32044;52.386;13.278;2022-12-29T05:24:44;2.53;;;1.48;;
46322;SDS011;32044;52.386;13.278;2022-12-29T05:27:09;2.60;;;1.55;;
46322;SDS011;32044;52.386;13.278;2022-12-29T05:29:34;2.58;;;1.75;;
46322;SDS011;32044;52.386;13.278;2022-12-29T05:32:00;4.22;;;1.77;;
46322;SDS011;32044;52.386;13.278;2022-12-29T05:34:25;1.67;;;1.52;;
46322;SDS011;32044;52.386;13.278;2022-12-29T05:36:50;3.60;;;1.73;;
46322;SDS011;32044;52.386;13.278;2022-12-29T05:39:16;2.30;;;1.50;;
46322;SDS011;32044;52.386;13.278;2022-12-29T05:41:41;3.63;;;1.75;;
46322;SDS011;32044;52.386;13.278;2022-12-29T05:44:06;2.22;;;1.45;;
46322;SDS011;32044;52.386;13.278;2022-12-29T05:46:31;2.55;;;1.52;;
46322;SDS011;32044;52.386;13.278;2022-12-29T05:48:57;3.13;;;1.60;;
46322;SDS011;32044;52.386;13.278;2022-12-29T05:51:22;2.10;;;1.52;;
46322;SDS011;32044;52.386;13.278;2022-12-29T05:53:47;1.77;;;1.38;;
46322;SDS011;32044;52.386;13.278;2022-12-29T05:56:12;2.05;;;1.60;;
46322;SDS011;32044;52.386;13.278;2022-12-29T05:58:38;1.95;;;1.35;;
46322;SDS011;32044;52.386;13.278;2022-12-29T06:01:03;3.53;;;1.60;;
46322;SDS011;32044;52.386;13.278;2022-12-29T06:03:28;3.38;;;1.60;;
46322;SDS011;32044;52.386;13.278;2022-12-29T06:05:54;2.63;;;1.60;;
46322;SDS011;32044;52.386;13.278;2022-12-29T06:08:19;3.90;;;1.60;;
46322;SDS011;32044;52.386;13.278;2022-12-29T06:10:44;2.67;;;1.77;;
46322;SDS011;32044;52.386;13.278;2022-12-29T06:13:09;3.45;;;1.40;;
46322;SDS011;32044;52.386;13.278;2022-12-29T06:15:35;3.17;;;1.52;;
46322;SDS011;32044;52.386;13.278;2022-12-29T06:18:00;2.08;;;1.42;;
46322;SDS011;32044;52.386;13.278;2022-12-29T06:20:26;2.20;;;1.45;;
46322;SDS011;32044;52.386;13.278;2022-12-29T06:22:51;2.10;;;1.40;;
46322;SDS011;32044;52.386;13.278;2022-12-29T06:25:16;2.40;;;1.42;;
46322;SDS011;32044;52.386;13.278;2022-12-29T06:27:41;3.05;;;1.50;;
46322;SDS011;32044;52.386;13.278;2022-12-29T06:30:07;2.08;;;1.52;;
46322;SDS011;32044;52.386;13.278;2022-12-29T06:32:33;2.10;;;1.30;;
46322;SDS011;32044;52.386;13.278;2022-12-29T06:34:59;2.58;;;1.25;;
46322;SDS011;32044;52.386;13.278;2022-12-29T06:37:24;4.97;;;1.40;;
46322;SDS011;32044;52.386;13.278;2022-12-29T06:39:49;2.92;;;1.67;;
46322;SDS011;32044;52.386;13.278;2022-12-29T06:42:15;3.55;;;1.40;;
46322;SDS011;32044;52.386;13.278;2022-12-29T06:44:40;2.35;;;1.70;;
46322;SDS011;32044;52.386;13.278;2022-12-29T06:47:05;2.78;;;1.52;;
46322;SDS011;32044;52.386;13.278;2022-12-29T06:49:30;1.20;;;1.08;;
46322;SDS011;32044;52.386;13.278;2022-12-29T06:51:56;2.35;;;1.42;;
46322;SDS011;32044;52.386;13.278;2022-12-29T06:54:23;1.83;;;1.52;;
46322;SDS011;32044;52.386;13.278;2022-12-29T06:56:48;3.47;;;1.45;;
46322;SDS011;32044;52.386;13.278;2022-12-29T06:59:13;3.60;;;1.60;;
46322;SDS011;32044;52.386;13.278;2022-12-29T07:01:39;2.08;;;1.30;;
46322;SDS011;32044;52.386;13.278;2022-12-29T07:04:04;3.10;;;1.55;;
46322;SDS011;32044;52.386;13.278;2022-12-29T07:06:29;3.17;;;1.50;;
46322;SDS011;32044;52.386;13.278;2022-12-29T07:08:54;1.40;;;1.30;;
46322;SDS011;32044;52.386;13.278;2022-12-29T07:11:22;2.15;;;1.35;;
46322;SDS011;32044;52.386;13.278;2022-12-29T07:13:47;2.33;;;1.50;;
46322;SDS011;32044;52.386;13.278;2022-12-29T07:16:13;4.03;;;1.33;;
46322;SDS011;32044;52.386;13.278;2022-12-29T07:18:38;1.75;;;1.10;;
46322;SDS011;32044;52.386;13.278;2022-12-29T07:21:03;1.90;;;1.30;;
46322;SDS011;32044;52.386;13.278;2022-12-29T07:23:29;1.52;;;1.30;;
46322;SDS011;32044;52.386;13.278;2022-12-29T07:26:01;1.88;;;1.40;;
46322;SDS011;32044;52.386;13.278;2022-12-29T07:28:27;3.35;;;1.40;;
46322;SDS011;32044;52.386;13.278;2022-12-29T07:30:52;3.10;;;1.40;;
46322;SDS011;32044;52.386;13.278;2022-12-29T07:33:17;2.60;;;1.40;;
46322;SDS011;32044;52.386;13.278;2022-12-29T07:35:43;1.83;;;1.40;;
46322;SDS011;32044;52.386;13.278;2022-12-29T07:38:08;1.60;;;1.30;;
46322;SDS011;32044;52.386;13.278;2022-12-29T07:40:33;1.00;;;0.80;;
46322;SDS011;32044;52.386;13.278;2022-12-29T07:42:58;1.52;;;1.17;;
46322;SDS011;32044;52.386;13.278;2022-12-29T07:45:24;1.33;;;1.00;;
46322;SDS011;32044;52.386;13.278;2022-12-29T07:47:52;3.88;;;1.10;;
46322;SDS011;32044;52.386;13.278;2022-12-29T07:50:32;3.22;;;1.40;;
46322;SDS011;32044;52.386;13.278;2022-12-29T07:52:57;2.38;;;1.10;;
46322;SDS011;32044;52.386;13.278;2022-12-29T07:55:22;1.83;;;1.23;;
46322;SDS011;32044;52.386;13.278;2022-12-29T07:57:48;1.45;;;1.10;;
46322;SDS011;32044;52.386;13.278;2022-12-29T08:00:13;3.20;;;1.20;;
46322;SDS011;32044;52.386;13.278;2022-12-29T08:02:39;4.20;;;1.10;;
46322;SDS011;32044;52.386;13.278;2022-12-29T08:05:04;3.20;;;1.60;;
46322;SDS011;32044;52.386;13.278;2022-12-29T08:07:30;1.40;;;1.17;;
46322;SDS011;32044;52.386;13.278;2022-12-29T08:09:55;2.92;;;1.13;;
46322;SDS011;32044;52.386;13.278;2022-12-29T08:12:20;3.83;;;1.60;;
46322;SDS011;32044;52.386;13.278;2022-12-29T08:14:45;1.80;;;1.60;;
46322;SDS011;32044;52.386;13.278;2022-12-29T08:17:11;3.72;;;1.65;;
46322;SDS011;32044;52.386;13.278;2022-12-29T08:19:36;3.33;;;1.30;;
46322;SDS011;32044;52.386;13.278;2022-12-29T08:22:02;1.50;;;1.40;;
46322;SDS011;32044;52.386;13.278;2022-12-29T08:24:27;2.40;;;1.60;;
46322;SDS011;32044;52.386;13.278;2022-12-29T08:26:53;2.83;;;1.30;;
46322;SDS011;32044;52.386;13.278;2022-12-29T08:29:18;3.20;;;1.30;;
46322;SDS011;32044;52.386;13.278;2022-12-29T08:31:44;3.22;;;1.65;;
46322;SDS011;32044;52.386;13.278;2022-12-29T08:34:09;3.28;;;1.52;;
46322;SDS011;32044;52.386;13.278;2022-12-29T08:36:35;3.30;;;1.52;;
46322;SDS011;32044;52.386;13.278;2022-12-29T08:39:00;3.67;;;1.67;;
46322;SDS011;32044;52.386;13.278;2022-12-29T08:41:25;2.38;;;1.70;;
46322;SDS011;32044;52.386;13.278;2022-12-29T08:43:51;2.60;;;1.30;;
46322;SDS011;32044;52.386;13.278;2022-12-29T08:46:17;2.47;;;1.45;;
46322;SDS011;32044;52.386;13.278;2022-12-29T08:48:42;3.25;;;1.40;;
46322;SDS011;32044;52.386;13.278;2022-12-29T08:51:08;1.90;;;1.20;;
46322;SDS011;32044;52.386;13.278;2022-12-29T08:53:33;2.92;;;1.40;;
46322;SDS011;32044;52.386;13.278;2022-12-29T08:55:59;7.18;;;5.15;;
46322;SDS011;32044;52.386;13.278;2022-12-29T08:58:25;2.33;;;1.60;;
46322;SDS011;32044;52.386;13.278;2022-12-29T09:00:52;3.38;;;1.30;;
46322;SDS011;32044;52.386;13.278;2022-12-29T09:03:18;2.03;;;1.20;;
46322;SDS011;32044;52.386;13.278;2022-12-29T09:05:46;6.43;;;1.50;;
46322;SDS011;32044;52.386;13.278;2022-12-29T09:08:18;3.63;;;1.85;;
46322;SDS011;32044;52.386;13.278;2022-12-29T09:10:44;4.95;;;1.80;;
46322;SDS011;32044;52.386;13.278;2022-12-29T09:13:10;1.42;;;1.30;;
46322;SDS011;32044;52.386;13.278;2022-12-29T09:15:36;3.90;;;1.40;;
46322;SDS011;32044;52.386;13.278;2022-12-29T09:18:01;3.05;;;1.67;;
46322;SDS011;32044;52.386;13.278;2022-12-29T09:20:27;3.20;;;1.50;;
46322;SDS011;32044;52.386;13.278;2022-12-29T09:22:53;3.00;;;1.58;;
46322;SDS011;32044;52.386;13.278;2022-12-29T09:25:19;2.25;;;1.27;;
46322;SDS011;32044;52.386;13.278;2022-12-29T09:27:44;3.38;;;1.60;;
46322;SDS011;32044;52.386;13.278;2022-12-29T09:30:12;2.08;;;1.30;;
46322;SDS011;32044;52.386;13.278;2022-12-29T09:32:39;4.05;;;1.20;;
46322;SDS011;32044;52.386;13.278;2022-12-29T09:35:04;2.22;;;1.30;;
46322;SDS011;32044;52.386;13.278;2022-12-29T09:37:30;4.22;;;1.48;;
46322;SDS011;32044;52.386;13.278;2022-12-29T09:39:55;2.00;;;1.17;;
46322;SDS011;32044;52.386;13.278;2022-12-29T09:42:32;3.38;;;1.20;;
46322;SDS011;32044;52.386;13.278;2022-12-29T09:45:22;3.40;;;1.10;;
46322;SDS011;32044;52.386;13.278;2022-12-29T09:47:52;2.38;;;1.20;;
46322;SDS011;32044;52.386;13.278;2022-12-29T09:50:22;2.20;;;1.40;;
46322;SDS011;32044;52.386;13.278;2022-12-29T09:52:50;4.45;;;1.20;;
46322;SDS011;32044;52.386;13.278;2022-12-29T09:55:21;1.65;;;1.13;;
46322;SDS011;32044;52.386;13.278;2022-12-29T09:57:56;2.33;;;1.20;;
46322;SDS011;32044;52.386;13.278;2022-12-29T10:00:36;2.17;;;1.13;;
46322;SDS011;32044;52.386;13.278;2022-12-29T10:03:03;2.30;;;1.30;;
46322;SDS011;32044;52.386;13.278;2022-12-29T10:05:45;2.72;;;1.50;;
46322;SDS011;32044;52.386;13.278;2022-12-29T10:08:30;3.45;;;1.30;;
46322;SDS011;32044;52.386;13.278;2022-12-29T10:14:16;2.30;;;1.20;;
46322;SDS011;32044;52.386;13.278;2022-12-29T10:22:32;2.53;;;1.00;;
46322;SDS011;32044;52.386;13.278;2022-12-29T10:24:58;4.80;;;1.27;;
46322;SDS011;32044;52.386;13.278;2022-12-29T10:27:28;1.50;;;1.00;;
46322;SDS011;32044;52.386;13.278;2022-12-29T10:29:56;2.15;;;1.30;;
46322;SDS011;32044;52.386;13.278;2022-12-29T10:32:31;2.38;;;1.10;;
46322;SDS011;32044;52.386;13.278;2022-12-29T10:35:19;3.78;;;1.10;;
46322;SDS011;32044;52.386;13.278;2022-12-29T10:37:57;2.95;;;1.05;;
46322;SDS011;32044;52.386;13.278;2022-12-29T10:43:25;2.92;;;1.17;;
46322;SDS011;32044;52.386;13.278;2022-12-29T10:45:58;1.27;;;1.17;;
46322;SDS011;32044;52.386;13.278;2022-12-29T10:48:27;2.22;;;1.23;;
46322;SDS011;32044;52.386;13.278;2022-12-29T10:50:55;1.33;;;1.13;;
46322;SDS011;32044;52.386;13.278;2022-12-29T10:53:23;2.35;;;1.15;;
46322;SDS011;32044;52.386;13.278;2022-12-29T10:55:52;2.40;;;1.17;;
46322;SDS011;32044;52.386;13.278;2022-12-29T10:58:17;2.40;;;1.10;;
46322;SDS011;32044;52.386;13.278;2022-12-29T11:00:43;1.80;;;1.20;;
46322;SDS011;32044;52.386;13.278;2022-12-29T11:09:09;1.63;;;1.23;;
46322;SDS011;32044;52.386;13.278;2022-12-29T11:11:37;3.05;;;1.40;;
46322;SDS011;32044;52.386;13.278;2022-12-29T11:14:19;1.85;;;1.20;;
46322;SDS011;32044;52.386;13.278;2022-12-29T11:17:00;3.17;;;1.00;;
46322;SDS011;32044;52.386;13.278;2022-12-29T11:19:27;3.65;;;1.48;;
46322;SDS011;32044;52.386;13.278;2022-12-29T11:21:54;4.57;;;1.40;;
46322;SDS011;32044;52.386;13.278;2022-12-29T11:24:24;2.20;;;1.20;;
46322;SDS011;32044;52.386;13.278;2022-12-29T11:26:52;1.52;;;1.20;;
46322;SDS011;32044;52.386;13.278;2022-12-29T11:29:28;3.38;;;1.10;;
46322;SDS011;32044;52.386;13.278;2022-12-29T11:31:58;5.85;;;1.80;;
46322;SDS011;32044;52.386;13.278;2022-12-29T11:34:30;3.97;;;1.60;;
46322;SDS011;32044;52.386;13.278;2022-12-29T11:36:59;3.35;;;1.33;;
46322;SDS011;32044;52.386;13.278;2022-12-29T11:42:05;2.20;;;0.90;;
46322;SDS011;32044;52.386;13.278;2022-12-29T11:44:36;2.92;;;1.30;;
46322;SDS011;32044;52.386;13.278;2022-12-29T11:47:02;3.00;;;1.30;;
46322;SDS011;32044;52.386;13.278;2022-12-29T11:49:28;1.88;;;1.23;;
46322;SDS011;32044;52.386;13.278;2022-12-29T11:51:54;2.15;;;1.40;;
46322;SDS011;32044;52.386;13.278;2022-12-29T11:54:27;5.30;;;1.60;;
46322;SDS011;32044;52.386;13.278;2022-12-29T11:56:54;2.60;;;1.70;;
46322;SDS011;32044;52.386;13.278;2022-12-29T12:01:51;3.75;;;1.60;;
46322;SDS011;32044;52.386;13.278;2022-12-29T12:04:17;2.55;;;1.40;;
46322;SDS011;32044;52.386;13.278;2022-12-29T12:06:47;8.65;;;1.90;;
46322;SDS011;32044;52.386;13.278;2022-12-29T12:09:21;4.97;;;1.52;;
46322;SDS011;32044;52.386;13.278;2022-12-29T12:11:51;2.88;;;1.48;;
46322;SDS011;32044;52.386;13.278;2022-12-29T12:17:04;2.45;;;1.13;;
46322;SDS011;32044;52.386;13.278;2022-12-29T12:19:40;2.33;;;1.10;;
46322;SDS011;32044;52.386;13.278;2022-12-29T12:22:10;1.98;;;1.00;;
46322;SDS011;32044;52.386;13.278;2022-12-29T12:27:22;1.80;;;0.55;;
46322;SDS011;32044;52.386;13.278;2022-12-29T12:29:54;1.45;;;0.63;;
46322;SDS011;32044;52.386;13.278;2022-12-29T12:32:46;1.67;;;0.90;;
46322;SDS011;32044;52.386;13.278;2022-12-29T12:38:58;2.13;;;0.65;;
46322;SDS011;32044;52.386;13.278;2022-12-29T12:41:05;1.13;;;0.50;;
46322;SDS011;32044;52.386;13.278;2022-12-29T12:43:44;1.75;;;0.28;;
46322;SDS011;32044;52.386;13.278;2022-12-29T12:51:57;1.35;;;0.40;;
46322;SDS011;32044;52.386;13.278;2022-12-29T12:54:35;1.70;;;0.63;;
46322;SDS011;32044;52.386;13.278;2022-12-29T13:00:15;2.47;;;0.70;;
46322;SDS011;32044;52.386;13.278;2022-12-29T13:08:34;1.75;;;0.70;;
46322;SDS011;32044;52.386;13.278;2022-12-29T13:11:10;1.38;;;0.88;;
46322;SDS011;32044;52.386;13.278;2022-12-29T13:16:53;1.27;;;0.60;;
46322;SDS011;32044;52.386;13.278;2022-12-29T13:22:21;2.17;;;0.85;;
46322;SDS011;32044;52.386;13.278;2022-12-29T13:27:46;2.38;;;1.15;;
46322;SDS011;32044;52.386;13.278;2022-12-29T13:30:37;1.55;;;1.00;;
46322;SDS011;32044;52.386;13.278;2022-12-29T13:35:56;1.98;;;1.13;;
46322;SDS011;32044;52.386;13.278;2022-12-29T13:38:46;1.30;;;0.90;;
46322;SDS011;32044;52.386;13.278;2022-12-29T13:41:18;1.65;;;1.10;;
46322;SDS011;32044;52.386;13.278;2022-12-29T13:43:46;3.70;;;0.90;;
46322;SDS011;32044;52.386;13.278;2022-12-29T13:46:14;1.90;;;1.20;;
46322;SDS011;32044;52.386;13.278;2022-12-29T13:48:51;3.75;;;1.30;;
46322;SDS011;32044;52.386;13.278;2022-12-29T13:51:20;1.77;;;1.10;;
46322;SDS011;32044;52.386;13.278;2022-12-29T13:53:52;1.73;;;1.02;;
46322;SDS011;32044;52.386;13.278;2022-12-29T13:56:39;1.40;;;1.25;;
46322;SDS011;32044;52.386;13.278;2022-12-29T13:59:16;1.65;;;1.40;;
46322;SDS011;32044;52.386;13.278;2022-12-29T14:02:30;2.45;;;1.23;;
46322;SDS011;32044;52.386;13.278;2022-12-29T14:05:26;1.48;;;0.93;;
46322;SDS011;32044;52.386;13.278;2022-12-29T14:07:46;4.13;;;1.10;;
46322;SDS011;32044;52.386;13.278;2022-12-29T14:10:26;1.98;;;1.30;;
46322;SDS011;32044;52.386;13.278;2022-12-29T14:13:10;1.70;;;1.58;;
46322;SDS011;32044;52.386;13.278;2022-12-29T14:15:38;1.45;;;1.30;;
46322;SDS011;32044;52.386;13.278;2022-12-29T14:18:13;2.72;;;1.27;;
46322;SDS011;32044;52.386;13.278;2022-12-29T14:20:51;5.80;;;1.40;;
46322;SDS011;32044;52.386;13.278;2022-12-29T14:23:29;4.03;;;1.52;;
46322;SDS011;32044;52.386;13.278;2022-12-29T14:28:32;5.43;;;2.20;;
46322;SDS011;32044;52.386;13.278;2022-12-29T14:30:58;7.10;;;2.53;;
46322;SDS011;32044;52.386;13.278;2022-12-29T14:33:28;3.45;;;2.00;;
46322;SDS011;32044;52.386;13.278;2022-12-29T14:35:55;2.83;;;2.00;;
46322;SDS011;32044;52.386;13.278;2022-12-29T14:38:25;2.30;;;2.10;;
46322;SDS011;32044;52.386;13.278;2022-12-29T14:40:51;4.45;;;2.58;;
46322;SDS011;32044;52.386;13.278;2022-12-29T14:43:24;7.50;;;3.40;;
46322;SDS011;32044;52.386;13.278;2022-12-29T14:45:53;8.88;;;2.53;;
46322;SDS011;32044;52.386;13.278;2022-12-29T14:48:30;2.38;;;1.85;;
46322;SDS011;32044;52.386;13.278;2022-12-29T14:50:57;3.15;;;2.00;;
46322;SDS011;32044;52.386;13.278;2022-12-29T14:56:11;4.25;;;1.70;;
46322;SDS011;32044;52.386;13.278;2022-12-29T14:58:43;2.38;;;1.55;;
46322;SDS011;32044;52.386;13.278;2022-12-29T15:01:15;3.55;;;1.60;;
46322;SDS011;32044;52.386;13.278;2022-12-29T15:03:44;2.47;;;1.63;;
46322;SDS011;32044;52.386;13.278;2022-12-29T15:06:12;1.50;;;1.40;;
46322;SDS011;32044;52.386;13.278;2022-12-29T15:08:52;2.20;;;1.50;;
46322;SDS011;32044;52.386;13.278;2022-12-29T15:11:32;3.80;;;1.52;;
46322;SDS011;32044;52.386;13.278;2022-12-29T15:17:02;3.72;;;1.60;;
46322;SDS011;32044;52.386;13.278;2022-12-29T15:19:35;2.63;;;1.70;;
46322;SDS011;32044;52.386;13.278;2022-12-29T15:22:01;3.05;;;1.67;;
46322;SDS011;32044;52.386;13.278;2022-12-29T15:24:27;4.38;;;2.50;;
46322;SDS011;32044;52.386;13.278;2022-12-29T15:26:53;3.50;;;1.58;;
46322;SDS011;32044;52.386;13.278;2022-12-29T15:29:29;3.38;;;1.70;;
46322;SDS011;32044;52.386;13.278;2022-12-29T15:32:10;3.58;;;1.42;;
46322;SDS011;32044;52.386;13.278;2022-12-29T15:34:42;4.22;;;1.40;;
46322;SDS011;32044;52.386;13.278;2022-12-29T15:37:08;1.60;;;1.27;;
46322;SDS011;32044;52.386;13.278;2022-12-29T15:39:34;1.73;;;1.30;;
46322;SDS011;32044;52.386;13.278;2022-12-29T15:42:02;3.80;;;1.70;;
46322;SDS011;32044;52.386;13.278;2022-12-29T15:44:41;3.28;;;2.00;;
46322;SDS011;32044;52.386;13.278;2022-12-29T15:47:26;5.43;;;3.40;;
46322;SDS011;32044;52.386;13.278;2022-12-29T15:49:59;5.70;;;3.05;;
46322;SDS011;32044;52.386;13.278;2022-12-29T15:52:28;3.15;;;2.38;;
46322;SDS011;32044;52.386;13.278;2022-12-29T15:54:54;4.38;;;2.00;;
46322;SDS011;32044;52.386;13.278;2022-12-29T15:57:24;8.18;;;4.05;;
46322;SDS011;32044;52.386;13.278;2022-12-29T15:59:51;7.80;;;5.15;;
46322;SDS011;32044;52.386;13.278;2022-12-29T16:02:16;7.72;;;3.75;;
46322;SDS011;32044;52.386;13.278;2022-12-29T16:04:41;5.28;;;3.60;;
46322;SDS011;32044;52.386;13.278;2022-12-29T16:07:27;4.85;;;2.40;;
46322;SDS011;32044;52.386;13.278;2022-12-29T16:09:55;3.47;;;2.03;;
46322;SDS011;32044;52.386;13.278;2022-12-29T16:12:40;3.75;;;1.50;;
46322;SDS011;32044;52.386;13.278;2022-12-29T16:15:10;2.88;;;1.40;;
46322;SDS011;32044;52.386;13.278;2022-12-29T16:17:43;2.63;;;1.70;;
46322;SDS011;32044;52.386;13.278;2022-12-29T16:20:21;2.03;;;1.60;;